Time;durP1;ratioP1;P1;durP2;ratioP2;P2;SDS_P1;SDS_P2;PMS_P1;PMS_P2;Temp;Humidity;BMP_temperature;BMP_pressure;BME280_temperature;BME280_humidity;BME280_pressure;Samples;Min_cycle;Max_cycle;Signal;HPM_P1;HPM_P2
2022/12/11 00:00:45;;;;;;;18.37;9.83;;;-0.30;99.90;;;;;;5028657;28;20244;-69
2022/12/11 00:03:11;;;;;;;15.60;9.80;;;-0.30;99.90;;;;;;5031054;28;20183;-68
2022/12/11 00:05:40;;;;;;;17.63;10.03;;;-0.40;99.90;;;;;;5027772;28;20185;-69
2022/12/11 00:08:06;;;;;;;20.67;11.20;;;-0.40;99.90;;;;;;5028465;28;20564;-69
2022/12/11 00:10:32;;;;;;;20.30;10.63;;;-0.40;99.90;;;;;;5032031;28;20208;-70
2022/12/11 00:12:57;;;;;;;18.00;10.70;;;-0.40;99.90;;;;;;5026325;28;20278;-69
2022/12/11 00:15:23;;;;;;;18.90;9.80;;;-0.60;99.90;;;;;;5029853;28;20287;-69
2022/12/11 00:17:49;;;;;;;17.47;10.87;;;-0.60;99.90;;;;;;5029659;28;20178;-69
2022/12/11 00:20:15;;;;;;;21.23;11.17;;;-0.50;99.90;;;;;;5023230;28;20214;-69
2022/12/11 00:22:40;;;;;;;19.70;11.20;;;-0.60;99.90;;;;;;5030483;28;20258;-70
2022/12/11 00:25:07;;;;;;;22.20;11.67;;;-0.60;99.90;;;;;;5027161;28;20240;-70
2022/12/11 00:27:32;;;;;;;18.57;11.47;;;-0.60;99.90;;;;;;5027484;28;20224;-70
2022/12/11 00:29:58;;;;;;;23.53;12.50;;;-0.60;99.90;;;;;;5030265;28;20189;-70
2022/12/11 00:32:24;;;;;;;20.53;11.97;;;-0.60;99.90;;;;;;5026538;28;20702;-70
2022/12/11 00:34:49;;;;;;;19.73;11.93;;;-0.70;99.90;;;;;;5028948;28;20216;-69
2022/12/11 00:37:15;;;;;;;21.60;12.30;;;-0.60;99.90;;;;;;5029215;28;20213;-69
2022/12/11 00:39:41;;;;;;;21.57;11.40;;;-0.60;99.90;;;;;;5026247;28;20284;-69
2022/12/11 00:42:07;;;;;;;22.47;12.40;;;-0.70;99.90;;;;;;5027823;28;20251;-69
2022/12/11 00:44:33;;;;;;;23.60;12.20;;;-0.70;99.90;;;;;;5029722;28;20238;-70
2022/12/11 00:46:59;;;;;;;20.53;11.77;;;-0.50;99.90;;;;;;5025463;28;20223;-70
2022/12/11 00:49:25;;;;;;;19.20;11.97;;;-0.50;99.90;;;;;;5028310;28;20644;-70
2022/12/11 00:51:51;;;;;;;22.23;12.30;;;-0.50;99.90;;;;;;5028312;28;20211;-69
2022/12/11 00:54:16;;;;;;;22.63;12.60;;;-0.50;99.90;;;;;;5023402;28;20554;-69
2022/12/11 00:56:42;;;;;;;23.20;12.87;;;-0.50;99.90;;;;;;5030854;28;20201;-69
2022/12/11 00:59:08;;;;;;;24.60;12.33;;;-0.60;99.90;;;;;;5025060;28;20221;-70
2022/12/11 01:01:33;;;;;;;19.70;12.50;;;-0.60;99.90;;;;;;5026722;28;20239;-69
2022/12/11 01:03:59;;;;;;;22.13;13.40;;;-0.70;99.90;;;;;;5029986;28;20220;-69
2022/12/11 01:06:26;;;;;;;19.13;11.63;;;-0.60;99.90;;;;;;5026162;28;20214;-69
2022/12/11 01:10:22;;;;;;;20.27;12.40;;;-0.50;99.90;;;;;;5031148;28;20175;-70
2022/12/11 01:11:39;;;;;;;24.03;12.47;;;-0.60;99.90;;;;;;5030174;28;20681;-69
2022/12/11 01:14:05;;;;;;;23.77;12.07;;;-0.70;99.90;;;;;;5028905;28;20215;-69
2022/12/11 01:16:31;;;;;;;21.40;12.70;;;-0.70;99.90;;;;;;5030752;28;20208;-69
2022/12/11 01:18:57;;;;;;;21.67;12.57;;;-0.70;99.90;;;;;;5031785;28;20207;-69
2022/12/11 01:21:23;;;;;;;22.93;12.33;;;-0.60;99.90;;;;;;5029743;28;20203;-69
2022/12/11 01:23:49;;;;;;;21.97;13.07;;;-0.60;99.90;;;;;;5032465;28;20191;-70
2022/12/11 01:26:15;;;;;;;23.63;12.17;;;-0.60;99.90;;;;;;5031654;28;20291;-70
2022/12/11 01:28:41;;;;;;;25.03;13.43;;;-0.60;99.90;;;;;;5030379;28;20242;-69
2022/12/11 01:31:14;;;;;;;24.60;12.13;;;-0.60;99.90;;;;;;5030885;28;20214;-69
2022/12/11 01:33:40;;;;;;;21.63;11.97;;;-0.60;99.90;;;;;;5031666;28;20267;-69
2022/12/11 01:36:10;;;;;;;21.47;12.37;;;-0.50;99.90;;;;;;5030452;28;20214;-69
2022/12/11 01:38:36;;;;;;;23.10;12.27;;;-0.50;99.90;;;;;;5047336;28;20217;-69
2022/12/11 01:41:02;;;;;;;17.20;11.23;;;-0.50;99.90;;;;;;5043251;28;20308;-69
2022/12/11 01:43:27;;;;;;;21.57;12.43;;;-0.40;99.90;;;;;;5048754;28;20284;-69
2022/12/11 01:45:53;;;;;;;22.40;12.50;;;-0.40;99.90;;;;;;5044321;28;20222;-68
2022/12/11 01:48:26;;;;;;;22.00;12.63;;;-0.50;99.90;;;;;;5043738;28;20271;-69
2022/12/11 01:50:58;;;;;;;21.67;12.63;;;-0.60;99.90;;;;;;5049835;28;20190;-69
2022/12/11 01:53:31;;;;;;;22.63;13.07;;;-0.60;99.90;;;;;;5055790;28;20211;-69
2022/12/11 01:55:58;;;;;;;23.70;12.07;;;-0.80;99.90;;;;;;5045029;28;20212;-69
2022/12/11 01:58:28;;;;;;;21.17;12.03;;;-0.70;99.90;;;;;;5049448;28;20266;-70
2022/12/11 02:00:55;;;;;;;19.77;11.60;;;-0.70;99.90;;;;;;5044338;28;20314;-69
2022/12/11 02:03:21;;;;;;;20.67;12.47;;;-0.70;99.90;;;;;;5048191;28;20266;-69
2022/12/11 02:05:47;;;;;;;20.20;11.73;;;-0.60;99.90;;;;;;5047375;28;20614;-69
2022/12/11 02:08:13;;;;;;;21.83;12.37;;;-0.60;99.90;;;;;;5038849;28;20213;-69
2022/12/11 02:11:03;;;;;;;21.60;12.20;;;-0.50;99.90;;;;;;5047893;28;20209;-69
2022/12/11 02:13:38;;;;;;;21.40;12.13;;;-0.40;99.90;;;;;;5037819;28;20213;-69
2022/12/11 02:16:34;;;;;;;22.83;12.47;;;-0.40;99.90;;;;;;5044949;28;20232;-69
2022/12/11 02:19:13;;;;;;;24.93;12.50;;;-0.50;99.90;;;;;;5033769;28;20707;-68
2022/12/11 02:21:44;;;;;;;21.87;12.50;;;-0.60;99.90;;;;;;5048540;28;20229;-69
2022/12/11 02:24:22;;;;;;;24.13;12.63;;;-0.60;99.90;;;;;;5047009;28;20265;-69
2022/12/11 02:27:11;;;;;;;21.43;13.10;;;-0.60;99.90;;;;;;5047908;28;20226;-68
2022/12/11 02:29:58;;;;;;;23.07;12.30;;;-0.70;99.90;;;;;;5045989;28;20213;-69
2022/12/11 02:32:31;;;;;;;24.30;12.30;;;-0.60;99.90;;;;;;5022085;28;20215;-69
2022/12/11 02:35:20;;;;;;;22.90;13.47;;;-0.60;99.90;;;;;;5050571;28;20215;-69
2022/12/11 02:37:48;;;;;;;22.13;12.13;;;-0.50;99.90;;;;;;5050918;28;20235;-69
2022/12/11 02:40:20;;;;;;;24.17;12.97;;;-0.70;99.90;;;;;;5056493;28;20209;-69
2022/12/11 02:42:47;;;;;;;21.20;12.73;;;-0.70;99.90;;;;;;5046054;28;20222;-69
2022/12/11 02:45:14;;;;;;;22.90;13.23;;;-0.60;99.90;;;;;;5053576;28;20667;-68
2022/12/11 02:47:42;;;;;;;24.40;13.10;;;-0.50;99.90;;;;;;5057280;28;20248;-69
2022/12/11 02:50:12;;;;;;;22.13;13.03;;;-0.50;99.90;;;;;;5053516;28;20211;-69
2022/12/11 02:52:41;;;;;;;26.07;13.80;;;-0.50;99.90;;;;;;5048996;28;20216;-69
2022/12/11 02:55:09;;;;;;;22.10;13.07;;;-0.50;99.90;;;;;;5057285;28;20224;-69
2022/12/11 02:57:43;;;;;;;21.43;12.70;;;-0.40;99.90;;;;;;5045309;28;20707;-69
2022/12/11 03:00:09;;;;;;;22.40;12.63;;;-0.40;99.90;;;;;;5054571;28;20237;-69
2022/12/11 03:02:36;;;;;;;26.43;13.47;;;-0.50;99.90;;;;;;5047188;28;20304;-70
2022/12/11 03:05:02;;;;;;;23.70;13.73;;;-0.50;99.90;;;;;;5045162;28;20743;-69
2022/12/11 03:07:32;;;;;;;22.93;12.73;;;-0.50;99.90;;;;;;5048507;28;20216;-69
2022/12/11 03:09:58;;;;;;;25.27;13.17;;;-0.50;99.90;;;;;;5048814;28;20214;-69
2022/12/11 03:12:30;;;;;;;24.37;12.83;;;-0.50;99.90;;;;;;5049558;28;20175;-68
2022/12/11 03:15:01;;;;;;;22.50;13.30;;;-0.50;99.90;;;;;;5049715;28;20934;-68
2022/12/11 03:17:52;;;;;;;25.33;13.67;;;-0.50;99.90;;;;;;5027619;28;20717;-69
2022/12/11 03:20:31;;;;;;;24.33;13.03;;;-0.50;99.90;;;;;;5024785;28;20624;-69
2022/12/11 03:23:22;;;;;;;22.47;13.07;;;-0.50;99.90;;;;;;5023670;28;20240;-69
2022/12/11 03:26:11;;;;;;;24.13;13.73;;;-0.60;99.90;;;;;;5026733;28;20280;-70
2022/12/11 03:29:02;;;;;;;22.17;13.00;;;-0.60;99.90;;;;;;5022564;28;20208;-69
2022/12/11 03:31:39;;;;;;;23.67;12.87;;;-0.60;99.90;;;;;;5020209;28;20211;-69
2022/12/11 03:34:17;;;;;;;22.57;13.70;;;-0.60;99.90;;;;;;5022976;28;20227;-68
2022/12/11 03:36:45;;;;;;;22.63;13.50;;;-0.50;99.90;;;;;;5020374;28;20362;-69
2022/12/11 03:39:17;;;;;;;23.37;12.93;;;-0.50;99.90;;;;;;5026456;28;20265;-68
2022/12/11 03:41:47;;;;;;;25.57;14.47;;;-0.50;99.90;;;;;;5023434;28;20264;-69
2022/12/11 03:44:13;;;;;;;25.60;13.47;;;-0.50;99.90;;;;;;5024983;28;20267;-69
2022/12/11 03:46:42;;;;;;;24.10;13.13;;;-0.60;99.90;;;;;;5028653;28;20209;-69
2022/12/11 03:49:16;;;;;;;25.33;13.53;;;-0.70;99.90;;;;;;5021214;28;20737;-69
2022/12/11 03:51:44;;;;;;;25.13;12.77;;;-0.70;99.90;;;;;;5024253;28;20664;-69
2022/12/11 03:54:10;;;;;;;26.20;14.10;;;-0.70;99.90;;;;;;5022621;28;20639;-69
2022/12/11 03:56:38;;;;;;;23.53;12.63;;;-0.70;99.90;;;;;;5023112;28;20210;-69
2022/12/11 03:59:04;;;;;;;24.83;13.73;;;-0.70;99.90;;;;;;5024794;28;20210;-72
2022/12/11 04:01:29;;;;;;;26.40;14.20;;;-0.60;99.90;;;;;;5019193;28;20277;-69
2022/12/11 04:03:55;;;;;;;26.23;14.50;;;-0.60;99.90;;;;;;5024494;28;20211;-69
2022/12/11 04:06:21;;;;;;;28.23;14.73;;;-0.60;99.90;;;;;;5028389;28;20707;-69
2022/12/11 04:08:46;;;;;;;25.53;14.10;;;-0.60;99.90;;;;;;5025700;28;20181;-69
2022/12/11 04:16:40;;;;;;;24.20;13.50;;;-0.50;99.90;;;;;;5027669;28;20223;-69
2022/12/11 04:24:37;;;;;;;27.90;14.93;;;-0.60;99.90;;;;;;5025435;28;20297;-69
2022/12/11 04:27:02;;;;;;;26.80;14.10;;;-0.50;99.90;;;;;;5030038;28;20207;-69
2022/12/11 04:29:28;;;;;;;24.60;13.70;;;-0.60;99.90;;;;;;5024248;28;20226;-69
2022/12/11 04:31:54;;;;;;;25.20;12.93;;;-0.60;99.90;;;;;;5030212;28;20205;-67
2022/12/11 04:34:20;;;;;;;26.03;13.77;;;-0.70;99.90;;;;;;5028258;28;20353;-69
2022/12/11 04:36:45;;;;;;;27.47;14.77;;;-0.60;99.90;;;;;;5026927;28;20745;-69
2022/12/11 04:39:11;;;;;;;26.87;13.93;;;-0.60;99.90;;;;;;5029501;28;20196;-68
2022/12/11 04:41:37;;;;;;;22.67;11.90;;;-0.60;99.90;;;;;;5028895;28;20333;-68
2022/12/11 04:44:04;;;;;;;24.80;13.70;;;-0.60;99.90;;;;;;5027040;28;20205;-68
2022/12/11 04:46:30;;;;;;;21.53;13.73;;;-0.70;99.90;;;;;;5026897;28;20742;-68
2022/12/11 04:48:56;;;;;;;24.60;13.70;;;-0.70;99.90;;;;;;5024725;28;20306;-67
2022/12/11 04:51:22;;;;;;;22.67;12.83;;;-0.80;99.90;;;;;;5025859;28;20178;-68
2022/12/11 04:53:47;;;;;;;23.90;13.53;;;-0.70;99.90;;;;;;5031333;28;20256;-68
2022/12/11 04:56:14;;;;;;;24.83;13.23;;;-0.80;99.90;;;;;;5022584;28;20282;-69
2022/12/11 04:58:41;;;;;;;23.87;13.67;;;-0.80;99.90;;;;;;5027722;28;20213;-68
2022/12/11 05:01:08;;;;;;;27.57;13.47;;;-0.70;99.90;;;;;;5026577;28;20248;-68
2022/12/11 05:03:34;;;;;;;23.50;13.83;;;-0.70;99.90;;;;;;5025627;28;20244;-67
2022/12/11 05:05:59;;;;;;;23.50;13.87;;;-0.70;99.90;;;;;;5027161;28;20224;-67
2022/12/11 05:08:25;;;;;;;23.93;14.10;;;-0.80;99.90;;;;;;5028770;28;20230;-67
2022/12/11 05:11:02;;;;;;;22.87;13.87;;;-0.70;99.90;;;;;;5026166;28;20747;-68
2022/12/11 05:13:28;;;;;;;22.57;13.73;;;-0.80;99.90;;;;;;5030634;28;20302;-69
2022/12/11 05:15:55;;;;;;;23.07;13.83;;;-0.80;99.90;;;;;;5025799;28;20309;-68
2022/12/11 05:18:20;;;;;;;24.97;12.80;;;-0.80;99.90;;;;;;5027965;28;20186;-68
2022/12/11 05:20:57;;;;;;;24.43;13.90;;;-0.70;99.90;;;;;;5031784;28;20240;-69
2022/12/11 05:23:22;;;;;;;23.37;13.80;;;-0.70;99.90;;;;;;5024206;28;20247;-69
2022/12/11 05:25:56;;;;;;;27.37;13.13;;;-0.80;99.90;;;;;;5028570;28;20844;-69
2022/12/11 05:28:23;;;;;;;27.27;13.57;;;-0.70;99.90;;;;;;5027800;28;20214;-68
2022/12/11 05:30:58;;;;;;;26.97;14.17;;;-0.70;99.90;;;;;;5027104;28;20214;-68
2022/12/11 05:33:24;;;;;;;23.83;13.17;;;-0.80;99.90;;;;;;5028951;28;20207;-70
2022/12/11 05:35:50;;;;;;;21.73;12.97;;;-0.80;99.90;;;;;;5024800;28;20606;-69
2022/12/11 05:38:16;;;;;;;26.97;14.23;;;-0.70;99.90;;;;;;5023168;28;20216;-68
2022/12/11 05:40:42;;;;;;;22.23;13.30;;;-0.70;99.90;;;;;;5028815;28;20586;-69
2022/12/11 05:43:08;;;;;;;25.53;14.07;;;-0.70;99.90;;;;;;5020776;28;20267;-68
2022/12/11 05:45:33;;;;;;;23.50;14.33;;;-0.70;99.90;;;;;;5026689;28;20221;-68
2022/12/11 05:47:59;;;;;;;25.47;14.10;;;-0.70;99.90;;;;;;5029207;28;20179;-68
2022/12/11 05:50:25;;;;;;;29.47;14.63;;;-0.70;99.90;;;;;;5022341;28;20219;-68
2022/12/11 05:52:50;;;;;;;27.33;13.70;;;-0.70;99.90;;;;;;5027789;28;20274;-70
2022/12/11 05:55:16;;;;;;;26.60;14.50;;;-0.80;99.90;;;;;;5026396;28;20298;-68
2022/12/11 05:57:41;;;;;;;21.07;13.03;;;-0.70;99.90;;;;;;5024227;28;20219;-69
2022/12/11 06:00:08;;;;;;;27.57;13.67;;;-0.70;99.90;;;;;;5024273;28;20256;-68
2022/12/11 06:02:35;;;;;;;22.67;12.43;;;-0.70;99.90;;;;;;5027579;28;20589;-68
2022/12/11 06:05:00;;;;;;;24.80;12.73;;;-0.70;99.90;;;;;;5024713;28;20721;-68
2022/12/11 06:07:26;;;;;;;21.47;11.87;;;-0.70;99.90;;;;;;5028581;28;20208;-68
2022/12/11 06:09:51;;;;;;;22.57;12.23;;;-0.80;99.90;;;;;;5021955;28;20220;-68
2022/12/11 06:12:17;;;;;;;22.43;12.17;;;-0.80;99.90;;;;;;5024536;28;20216;-67
2022/12/11 06:14:43;;;;;;;21.17;12.17;;;-0.70;99.90;;;;;;5029882;28;20679;-67
2022/12/11 06:17:08;;;;;;;21.23;12.57;;;-0.70;99.90;;;;;;5020077;28;20239;-67
2022/12/11 06:19:34;;;;;;;22.07;10.80;;;-0.70;99.90;;;;;;5026715;28;20216;-68
2022/12/11 06:21:59;;;;;;;20.20;10.73;;;-0.70;99.90;;;;;;5027160;28;20274;-69
2022/12/11 06:24:25;;;;;;;18.57;10.53;;;-0.70;99.90;;;;;;5023165;28;20184;-69
2022/12/11 06:26:50;;;;;;;19.97;11.33;;;-0.70;99.90;;;;;;5027966;28;20614;-69
2022/12/11 06:29:17;;;;;;;20.30;10.70;;;-0.60;99.90;;;;;;5025748;28;20235;-69
2022/12/11 06:31:42;;;;;;;22.40;12.03;;;-0.80;99.90;;;;;;5026296;28;20254;-69
2022/12/11 06:34:11;;;;;;;18.83;10.87;;;-0.70;99.90;;;;;;5027302;28;20215;-69
2022/12/11 06:36:37;;;;;;;20.07;10.60;;;-0.70;99.90;;;;;;5023009;28;20236;-69
2022/12/11 06:39:03;;;;;;;18.43;10.50;;;-0.80;99.90;;;;;;5024572;28;20545;-69
2022/12/11 06:41:28;;;;;;;17.97;11.10;;;-0.60;99.90;;;;;;5024410;28;20754;-69
2022/12/11 06:43:54;;;;;;;16.80;9.77;;;-0.60;99.90;;;;;;5023494;28;20223;-69
2022/12/11 06:46:20;;;;;;;15.83;9.97;;;-0.70;99.90;;;;;;5024841;28;20212;-68
2022/12/11 06:48:46;;;;;;;17.27;9.83;;;-0.70;99.90;;;;;;5029486;28;20566;-69
2022/12/11 06:51:15;;;;;;;17.27;9.50;;;-0.80;99.90;;;;;;5020147;28;20198;-69
2022/12/11 06:53:41;;;;;;;15.67;9.27;;;-0.80;99.90;;;;;;5023253;28;20181;-69
2022/12/11 06:56:09;;;;;;;14.73;9.03;;;-0.80;99.90;;;;;;5027280;28;20222;-69
2022/12/11 06:58:36;;;;;;;18.20;9.07;;;-0.80;99.90;;;;;;5022897;28;20258;-69
2022/12/11 07:01:03;;;;;;;14.00;8.07;;;-0.90;99.90;;;;;;5024068;28;20217;-69
2022/12/11 07:03:29;;;;;;;13.37;8.17;;;-1.10;99.90;;;;;;5026940;28;20726;-69
2022/12/11 07:05:59;;;;;;;14.33;8.27;;;-1.00;99.90;;;;;;5025226;28;20192;-68
2022/12/11 07:08:27;;;;;;;15.23;8.90;;;-1.00;99.90;;;;;;5028438;28;20209;-69
2022/12/11 07:10:52;;;;;;;16.60;8.60;;;-1.00;99.90;;;;;;5022289;28;20212;-70
2022/12/11 07:13:18;;;;;;;15.63;8.77;;;-1.00;99.90;;;;;;5022813;28;20217;-70
2022/12/11 07:15:44;;;;;;;16.17;9.37;;;-0.90;99.90;;;;;;5028863;28;20209;-69
2022/12/11 07:18:09;;;;;;;16.70;9.83;;;-0.90;99.90;;;;;;5023430;28;20651;-69
2022/12/11 07:20:35;;;;;;;17.03;9.27;;;-0.90;99.90;;;;;;5026583;28;20212;-68
2022/12/11 07:23:00;;;;;;;15.67;9.10;;;-1.00;99.90;;;;;;5027995;28;20204;-69
2022/12/11 07:25:26;;;;;;;16.00;8.17;;;-0.80;99.90;;;;;;5022609;28;20288;-68
2022/12/11 07:27:52;;;;;;;13.17;8.53;;;-0.90;99.90;;;;;;5027224;28;20301;-68
2022/12/11 07:30:18;;;;;;;15.07;9.03;;;-0.90;99.90;;;;;;5022282;28;20193;-68
2022/12/11 07:32:43;;;;;;;13.97;8.97;;;-0.90;99.90;;;;;;5026251;28;20186;-69
2022/12/11 07:35:09;;;;;;;14.43;9.33;;;-0.90;99.90;;;;;;5027698;28;20204;-69
2022/12/11 07:37:35;;;;;;;19.77;10.10;;;-1.00;99.90;;;;;;5023481;28;20255;-69
2022/12/11 07:40:00;;;;;;;17.00;8.87;;;-1.00;99.90;;;;;;5023892;28;20249;-69
2022/12/11 07:42:27;;;;;;;16.77;9.27;;;-1.00;99.90;;;;;;5030887;28;20631;-69
2022/12/11 07:44:52;;;;;;;13.80;7.93;;;-1.10;99.90;;;;;;5026435;28;20194;-69
2022/12/11 07:47:18;;;;;;;12.53;8.43;;;-1.10;99.90;;;;;;5027047;28;20204;-69
2022/12/11 07:49:44;;;;;;;17.90;8.63;;;-1.00;99.90;;;;;;5032621;28;20212;-69
2022/12/11 07:52:09;;;;;;;17.07;8.63;;;-1.00;99.90;;;;;;5026326;28;20316;-69
2022/12/11 07:54:35;;;;;;;17.50;9.23;;;-1.00;99.90;;;;;;5048663;28;20266;-69
2022/12/11 07:57:00;;;;;;;13.77;8.20;;;-1.10;99.90;;;;;;5028275;28;20196;-69
2022/12/11 07:59:26;;;;;;;15.07;9.50;;;-1.00;99.90;;;;;;5025878;28;20353;-69
2022/12/11 08:01:51;;;;;;;13.80;8.17;;;-0.90;99.90;;;;;;5030781;28;20212;-69
2022/12/11 08:04:17;;;;;;;19.33;9.73;;;-0.90;99.90;;;;;;5026646;28;20214;-70
2022/12/11 08:06:43;;;;;;;16.70;9.67;;;-1.00;99.90;;;;;;5028844;28;20209;-69
2022/12/11 08:09:11;;;;;;;17.07;10.07;;;-1.10;99.90;;;;;;5029233;28;20169;-69
2022/12/11 08:11:37;;;;;;;18.27;10.40;;;-1.00;99.90;;;;;;5026827;28;20181;-69
2022/12/11 08:14:04;;;;;;;17.70;10.10;;;-1.00;99.90;;;;;;5030340;28;20214;-69
2022/12/11 08:16:31;;;;;;;16.37;9.40;;;-1.00;99.90;;;;;;5032317;28;20712;-69
2022/12/11 08:18:58;;;;;;;17.03;9.83;;;-1.00;99.90;;;;;;5028812;28;20591;-69
2022/12/11 08:21:25;;;;;;;17.37;10.13;;;-0.90;99.90;;;;;;5027134;28;20235;-69
2022/12/11 08:23:52;;;;;;;13.87;7.80;;;-0.90;99.90;;;;;;5028207;28;20320;-69
2022/12/11 08:26:24;;;;;;;15.17;8.90;;;-0.90;99.90;;;;;;5040450;28;20211;-69
2022/12/11 08:28:50;;;;;;;15.33;8.77;;;-1.00;99.90;;;;;;5047961;28;20201;-69
2022/12/11 08:31:16;;;;;;;18.40;9.03;;;-0.90;99.90;;;;;;5023989;28;20262;-70
2022/12/11 08:33:43;;;;;;;13.43;8.67;;;-0.80;99.90;;;;;;5030206;28;20224;-69
2022/12/11 08:36:12;;;;;;;15.10;8.47;;;-0.80;99.90;;;;;;5030059;28;20684;-69
2022/12/11 08:38:38;;;;;;;17.63;9.27;;;-0.70;99.90;;;;;;5026584;28;20179;-69
2022/12/11 08:41:28;;;;;;;15.40;8.57;;;-0.60;99.90;;;;;;5026455;28;20248;-69
2022/12/11 08:43:54;;;;;;;14.40;8.27;;;-0.80;99.90;;;;;;5047206;28;20215;-69
2022/12/11 08:46:27;;;;;;;14.97;8.73;;;-0.80;99.90;;;;;;5023370;28;20215;-68
2022/12/11 08:48:54;;;;;;;11.80;7.23;;;-0.80;99.90;;;;;;5030375;28;20213;-68
2022/12/11 08:51:23;;;;;;;13.80;8.30;;;-0.70;99.90;;;;;;5024763;28;20191;-69
2022/12/11 08:53:49;;;;;;;11.67;7.50;;;-0.80;99.90;;;;;;5046558;28;20302;-69
2022/12/11 08:56:18;;;;;;;13.80;8.40;;;-0.70;99.90;;;;;;5029403;28;20314;-69
2022/12/11 08:58:44;;;;;;;15.83;8.53;;;-0.80;99.90;;;;;;5047394;28;20232;-69
2022/12/11 09:01:13;;;;;;;16.57;8.10;;;-0.80;99.90;;;;;;5028474;28;20222;-69
2022/12/11 09:03:39;;;;;;;14.87;8.63;;;-0.90;99.90;;;;;;5030885;28;20219;-69
2022/12/11 09:06:06;;;;;;;13.47;7.77;;;-0.80;99.90;;;;;;5024240;28;20211;-69
2022/12/11 09:08:33;;;;;;;13.60;8.73;;;-0.70;99.90;;;;;;5028711;28;20235;-69
2022/12/11 09:11:04;;;;;;;16.07;8.97;;;-0.70;99.90;;;;;;5029476;28;20267;-69
2022/12/11 09:13:29;;;;;;;15.77;8.40;;;-0.70;99.90;;;;;;5025491;28;20213;-69
2022/12/11 09:15:55;;;;;;;18.37;8.93;;;-0.60;99.90;;;;;;5028607;28;20241;-69
2022/12/11 09:18:21;;;;;;;15.80;8.53;;;-0.50;99.90;;;;;;5024105;28;20552;-69
2022/12/11 09:20:46;;;;;;;16.17;8.27;;;-0.50;99.90;;;;;;5027473;28;20172;-70
2022/12/11 09:23:12;;;;;;;14.40;8.40;;;-0.50;99.90;;;;;;5029477;28;20218;-69
2022/12/11 09:25:39;;;;;;;12.93;8.07;;;-0.60;99.90;;;;;;5046799;28;20209;-69
2022/12/11 09:28:04;;;;;;;14.43;8.77;;;-0.60;99.90;;;;;;5045120;28;20318;-69
2022/12/11 09:30:30;;;;;;;15.97;9.97;;;-0.50;99.90;;;;;;5029727;28;20706;-69
2022/12/11 09:32:56;;;;;;;15.93;9.33;;;-0.50;99.90;;;;;;5023764;28;20181;-69
2022/12/11 09:35:22;;;;;;;14.70;9.07;;;-0.50;99.90;;;;;;5026782;28;20217;-70
2022/12/11 09:37:47;;;;;;;12.90;8.00;;;-0.60;99.90;;;;;;5030548;28;20226;-70
2022/12/11 09:40:13;;;;;;;18.23;8.70;;;-0.60;99.90;;;;;;5022966;28;20291;-70
2022/12/11 09:42:46;;;;;;;15.80;8.80;;;-0.50;99.90;;;;;;5028674;28;20324;-70
2022/12/11 09:45:14;;;;;;;13.73;9.03;;;-0.50;99.90;;;;;;5025286;28;20552;-70
2022/12/11 09:47:43;;;;;;;12.97;7.93;;;-0.50;99.90;;;;;;5026964;28;20194;-69
2022/12/11 09:50:08;;;;;;;15.57;8.77;;;-0.60;99.90;;;;;;5027490;28;20307;-69
2022/12/11 09:52:43;;;;;;;15.63;8.40;;;-0.60;99.90;;;;;;5024648;28;20304;-70
2022/12/11 09:55:16;;;;;;;15.13;8.50;;;-0.60;99.90;;;;;;5024028;28;20565;-69
2022/12/11 09:57:58;;;;;;;20.73;10.17;;;-0.50;99.90;;;;;;5029872;28;20231;-69
2022/12/11 10:00:32;;;;;;;19.73;8.47;;;-0.60;99.90;;;;;;5022643;28;20594;-69
2022/12/11 10:03:19;;;;;;;13.83;8.70;;;-0.60;99.90;;;;;;5027498;28;20203;-69
2022/12/11 10:06:04;;;;;;;15.93;9.63;;;-0.60;99.90;;;;;;5029401;28;20213;-69
2022/12/11 10:08:51;;;;;;;16.37;8.63;;;-0.60;99.90;;;;;;5041363;28;20212;-69
2022/12/11 10:11:41;;;;;;;17.13;10.07;;;-0.70;99.90;;;;;;5025028;28;20218;-69
2022/12/11 10:14:26;;;;;;;17.70;9.13;;;-0.70;99.90;;;;;;5021971;28;20219;-69
2022/12/11 10:17:05;;;;;;;17.37;9.03;;;-0.80;99.90;;;;;;5027172;28;20706;-69
2022/12/11 10:19:32;;;;;;;16.97;8.03;;;-0.70;99.90;;;;;;5024722;28;20207;-69
2022/12/11 10:22:00;;;;;;;16.67;8.93;;;-0.60;99.90;;;;;;5025308;28;20702;-69
2022/12/11 10:24:48;;;;;;;14.93;9.37;;;-0.50;99.90;;;;;;5028542;28;20653;-69
2022/12/11 10:27:20;;;;;;;14.57;8.63;;;-0.50;99.90;;;;;;5021888;28;20210;-69
2022/12/11 10:29:53;;;;;;;18.50;9.13;;;-0.50;99.90;;;;;;5045544;28;20257;-69
2022/12/11 10:32:24;;;;;;;16.37;9.40;;;-0.60;99.90;;;;;;5029211;28;20211;-70
2022/12/11 10:35:01;;;;;;;18.63;9.67;;;-0.50;99.90;;;;;;5025454;28;20267;-69
2022/12/11 10:37:27;;;;;;;17.53;9.10;;;-0.50;99.90;;;;;;5043745;28;20218;-69
2022/12/11 10:39:53;;;;;;;15.73;9.53;;;-0.40;99.90;;;;;;5018308;28;20204;-69
2022/12/11 10:42:21;;;;;;;15.50;9.03;;;-0.40;99.90;;;;;;5024335;28;20347;-70
2022/12/11 10:45:03;;;;;;;18.23;9.13;;;-0.40;99.90;;;;;;5029902;28;20592;-72
2022/12/11 10:47:29;;;;;;;17.87;9.67;;;-0.40;99.90;;;;;;5022730;28;20216;-69
2022/12/11 10:50:00;;;;;;;17.07;9.47;;;-0.40;99.90;;;;;;5027453;28;20283;-70
2022/12/11 10:52:37;;;;;;;17.37;9.20;;;-0.30;99.90;;;;;;5025710;28;20215;-71
2022/12/11 10:55:16;;;;;;;17.37;9.97;;;-0.40;99.90;;;;;;5043657;28;20214;-70
2022/12/11 10:57:42;;;;;;;15.67;9.03;;;-0.40;99.90;;;;;;5026043;28;20210;-71
2022/12/11 11:00:39;;;;;;;18.73;9.97;;;-0.40;99.90;;;;;;5023911;28;20184;-71
2022/12/11 11:03:19;;;;;;;15.10;9.13;;;-0.40;99.90;;;;;;5025459;28;20304;-70
2022/12/11 11:05:45;;;;;;;13.77;8.90;;;-0.40;99.90;;;;;;5024565;28;20606;-70
2022/12/11 11:08:20;;;;;;;17.87;9.40;;;-0.50;99.90;;;;;;5043056;28;20304;-71
2022/12/11 11:11:04;;;;;;;16.07;9.33;;;-0.70;99.90;;;;;;5044308;28;20296;-70
2022/12/11 11:13:31;;;;;;;14.93;8.57;;;-0.50;99.90;;;;;;5028523;28;20571;-70
2022/12/11 11:16:10;;;;;;;16.17;8.47;;;-0.50;99.90;;;;;;5043291;28;20217;-70
2022/12/11 11:18:39;;;;;;;16.13;8.80;;;-0.50;99.90;;;;;;5025756;28;20215;-70
2022/12/11 11:21:05;;;;;;;17.80;9.60;;;-0.40;99.90;;;;;;5021068;28;20212;-71
2022/12/11 11:23:31;;;;;;;14.23;8.43;;;-0.20;99.90;;;;;;5025081;28;20554;-70
2022/12/11 11:25:59;;;;;;;14.93;8.33;;;-0.30;99.90;;;;;;5028118;28;20208;-69
2022/12/11 11:28:34;;;;;;;16.23;9.07;;;-0.20;99.90;;;;;;5021351;28;20209;-70
2022/12/11 11:31:20;;;;;;;15.37;8.83;;;-0.30;99.90;;;;;;5025500;28;20304;-69
2022/12/11 11:33:52;;;;;;;15.20;8.40;;;-0.30;99.90;;;;;;5022719;28;20221;-71
2022/12/11 11:36:23;;;;;;;17.53;9.67;;;-0.30;99.90;;;;;;5038668;28;20378;-68
2022/12/11 11:38:57;;;;;;;17.20;9.17;;;-0.10;99.90;;;;;;5028706;28;20285;-69
2022/12/11 11:41:28;;;;;;;16.47;9.20;;;0.00;99.90;;;;;;5020457;28;20763;-68
2022/12/11 11:44:01;;;;;;;15.40;8.90;;;0.00;99.90;;;;;;5025900;28;20717;-68
2022/12/11 11:46:56;;;;;;;15.97;9.60;;;0.00;99.90;;;;;;5022767;28;20211;-69
2022/12/11 11:49:35;;;;;;;17.67;9.47;;;-0.10;99.90;;;;;;5024650;28;20264;-69
2022/12/11 11:52:25;;;;;;;16.23;9.70;;;-0.10;99.90;;;;;;5033599;28;20685;-69
2022/12/11 11:55:09;;;;;;;20.03;11.83;;;-0.20;99.90;;;;;;5020378;28;20607;-70
2022/12/11 11:57:42;;;;;;;17.17;9.33;;;-0.20;99.90;;;;;;5023132;28;20216;-70
2022/12/11 12:00:23;;;;;;;20.10;10.63;;;-0.40;99.90;;;;;;5022612;28;20197;-68
2022/12/11 12:02:53;;;;;;;16.30;9.70;;;-0.30;99.90;;;;;;5021112;28;20219;-70
2022/12/11 12:05:36;;;;;;;15.43;9.13;;;-0.30;99.90;;;;;;5026862;28;20687;-69
2022/12/11 12:08:09;;;;;;;14.33;9.10;;;-0.40;99.90;;;;;;5015898;28;20291;-69
2022/12/11 12:10:46;;;;;;;15.57;9.47;;;-0.30;99.90;;;;;;5021794;28;20211;-69
2022/12/11 12:13:15;;;;;;;17.47;9.70;;;-0.20;99.90;;;;;;5024931;28;20722;-70
2022/12/11 12:15:56;;;;;;;15.73;9.70;;;-0.20;99.90;;;;;;5022648;28;20231;-70
2022/12/11 12:18:25;;;;;;;19.23;9.80;;;-0.10;99.90;;;;;;5027086;28;20235;-69
2022/12/11 12:20:56;;;;;;;15.97;9.20;;;-0.30;99.90;;;;;;5037387;28;20222;-70
2022/12/11 12:23:40;;;;;;;17.30;9.80;;;-0.20;99.90;;;;;;5023412;28;20215;-70
2022/12/11 12:26:30;;;;;;;18.23;9.70;;;-0.20;99.90;;;;;;5032168;28;20231;-70
2022/12/11 12:29:04;;;;;;;15.53;9.23;;;-0.30;99.90;;;;;;5023658;28;20709;-70
2022/12/11 12:31:57;;;;;;;19.00;9.63;;;-0.30;99.90;;;;;;5029428;28;20210;-69
2022/12/11 12:34:38;;;;;;;19.87;10.53;;;-0.20;99.90;;;;;;5026346;28;20216;-70
2022/12/11 12:37:11;;;;;;;18.67;10.47;;;-0.10;99.90;;;;;;5026600;28;20234;-69
2022/12/11 12:40:24;;;;;;;15.70;9.50;;;-0.10;99.90;;;;;;5030981;28;20615;-69
2022/12/11 12:43:05;;;;;;;15.33;9.63;;;-0.10;99.90;;;;;;5010896;28;20304;-70
2022/12/11 12:45:49;;;;;;;20.80;10.93;;;-0.20;99.90;;;;;;5027951;28;20218;-70
2022/12/11 12:48:15;;;;;;;21.80;11.13;;;-0.10;99.90;;;;;;5027589;28;20199;-70
2022/12/11 12:50:48;;;;;;;15.87;9.80;;;-0.10;99.90;;;;;;5030487;28;20214;-70
2022/12/11 12:53:22;;;;;;;21.87;11.23;;;-0.10;99.90;;;;;;5030731;28;20210;-71
2022/12/11 12:55:49;;;;;;;24.50;11.87;;;-0.10;99.90;;;;;;5023170;28;20265;-70